Time;durP1;ratioP1;P1;durP2;ratioP2;P2;SDS_P1;SDS_P2;PMS_P1;PMS_P2;Temp;Humidity;BMP_temperature;BMP_pressure;BME280_temperature;BME280_humidity;BME280_pressure;Samples;Min_cycle;Max_cycle;Signal;HPM_P1;HPM_P2
2020/12/22 00:00:59;;;;;;;11.48;6.30;;;13.20;71.50;;;;;;6250946;28;20063;-74
2020/12/22 00:04:00;;;;;;;14.18;6.70;;;13.20;71.50;;;;;;6251902;28;20568;-74
2020/12/22 00:07:01;;;;;;;11.93;6.57;;;13.20;71.40;;;;;;6253779;28;20060;-75
2020/12/22 00:10:04;;;;;;;16.25;6.63;;;13.20;71.20;;;;;;6249713;28;20100;-73
2020/12/22 00:13:05;;;;;;;13.43;6.63;;;13.10;71.20;;;;;;6250938;28;20083;-73
2020/12/22 00:16:06;;;;;;;15.07;6.70;;;13.10;71.40;;;;;;6255595;28;20061;-74
2020/12/22 00:19:07;;;;;;;13.65;6.18;;;13.10;71.50;;;;;;6253880;28;20462;-73
2020/12/22 00:22:08;;;;;;;12.65;6.75;;;13.10;71.50;;;;;;6254207;28;20045;-72
2020/12/22 00:25:09;;;;;;;12.68;6.57;;;13.10;71.50;;;;;;6251814;28;20508;-73
2020/12/22 00:28:11;;;;;;;13.93;6.65;;;13.10;71.60;;;;;;6249581;28;20033;-74
2020/12/22 00:31:12;;;;;;;11.55;6.35;;;13.10;71.60;;;;;;6254947;28;20065;-74
2020/12/22 00:34:13;;;;;;;12.45;6.65;;;13.10;71.50;;;;;;6257049;28;20097;-73
2020/12/22 00:37:14;;;;;;;15.38;6.65;;;13.00;71.40;;;;;;6253721;28;20021;-74
2020/12/22 00:40:15;;;;;;;11.80;6.55;;;13.00;71.40;;;;;;6254562;28;20426;-73
2020/12/22 00:43:15;;;;;;;12.25;6.30;;;13.00;71.40;;;;;;6258960;28;20033;-74
2020/12/22 00:46:17;;;;;;;11.80;6.03;;;13.00;71.60;;;;;;6255286;28;20052;-73
2020/12/22 00:49:18;;;;;;;12.60;5.72;;;12.90;71.70;;;;;;6256252;28;20132;-74
2020/12/22 00:52:19;;;;;;;12.25;6.43;;;12.90;71.70;;;;;;6261366;28;20041;-73
2020/12/22 00:55:20;;;;;;;13.38;6.85;;;12.90;71.70;;;;;;6262752;28;20045;-73
2020/12/22 00:58:28;;;;;;;13.73;6.68;;;12.90;71.80;;;;;;6249238;28;20037;-73
2020/12/22 01:01:30;;;;;;;14.18;5.85;;;12.90;71.80;;;;;;6245272;28;20037;-73
2020/12/22 01:04:31;;;;;;;19.77;6.60;;;12.90;71.60;;;;;;6259146;28;20044;-73
2020/12/22 01:07:33;;;;;;;12.65;6.80;;;12.90;71.60;;;;;;6257141;28;20111;-73
2020/12/22 01:10:34;;;;;;;12.90;6.05;;;12.80;71.60;;;;;;6260826;28;20033;-72
2020/12/22 01:13:35;;;;;;;14.15;7.03;;;12.80;71.70;;;;;;6243002;28;20042;-73
2020/12/22 01:16:35;;;;;;;11.27;6.32;;;12.70;71.80;;;;;;6231979;28;20064;-73
2020/12/22 01:19:37;;;;;;;14.77;6.82;;;12.70;71.80;;;;;;6225069;28;20041;-73
2020/12/22 01:23:02;;;;;;;15.40;7.22;;;12.70;72.00;;;;;;6232705;28;20113;-73
2020/12/22 01:26:05;;;;;;;12.73;6.68;;;12.70;72.00;;;;;;6229105;28;20088;-73
2020/12/22 01:29:06;;;;;;;15.45;6.28;;;12.70;71.90;;;;;;6236225;28;20033;-73
2020/12/22 01:32:07;;;;;;;15.32;6.93;;;12.60;71.90;;;;;;6234650;28;20337;-73
2020/12/22 01:35:08;;;;;;;12.73;6.22;;;12.60;72.10;;;;;;6235787;28;20041;-73
2020/12/22 01:38:09;;;;;;;16.55;7.03;;;12.60;72.10;;;;;;6227409;28;20034;-73
2020/12/22 01:41:10;;;;;;;21.25;6.00;;;12.60;72.00;;;;;;6233902;28;20038;-73
2020/12/22 01:44:16;;;;;;;13.48;6.45;;;12.60;71.90;;;;;;6236705;28;20034;-73
2020/12/22 01:47:18;;;;;;;25.75;7.20;;;12.60;72.00;;;;;;6255971;28;20482;-73
2020/12/22 01:50:19;;;;;;;19.27;8.48;;;12.60;72.00;;;;;;6239434;28;20537;-74
2020/12/22 01:53:20;;;;;;;16.25;7.97;;;12.60;72.00;;;;;;6234962;28;20097;-73
2020/12/22 01:56:21;;;;;;;18.02;8.30;;;12.60;72.00;;;;;;6234754;28;20360;-74
2020/12/22 01:59:23;;;;;;;15.45;7.50;;;12.70;72.00;;;;;;6233201;28;20532;-73
2020/12/22 02:02:24;;;;;;;13.52;7.28;;;12.60;71.90;;;;;;6235111;28;20528;-73
2020/12/22 02:05:25;;;;;;;16.70;6.95;;;12.70;71.90;;;;;;6234951;28;20037;-73
2020/12/22 02:08:26;;;;;;;14.77;7.82;;;12.60;71.90;;;;;;6229429;28;20680;-73
2020/12/22 02:11:29;;;;;;;19.65;7.90;;;12.70;72.00;;;;;;6230214;28;20034;-73
2020/12/22 02:14:30;;;;;;;17.15;8.45;;;12.70;72.00;;;;;;6233923;28;20493;-73
2020/12/22 02:17:31;;;;;;;16.38;7.85;;;12.70;72.10;;;;;;6221971;28;20037;-73
2020/12/22 02:20:32;;;;;;;17.15;8.75;;;12.70;72.10;;;;;;6232325;28;20025;-73
2020/12/22 02:23:33;;;;;;;17.83;8.05;;;12.60;72.10;;;;;;6234277;28;20060;-73
2020/12/22 02:26:35;;;;;;;17.02;8.20;;;12.60;72.10;;;;;;6234633;28;20049;-73
2020/12/22 02:29:35;;;;;;;19.20;8.52;;;12.60;72.20;;;;;;6227971;28;20033;-73
2020/12/22 02:32:38;;;;;;;16.08;8.13;;;12.60;72.40;;;;;;6231413;28;20068;-72
2020/12/22 02:35:40;;;;;;;18.50;8.23;;;12.60;72.50;;;;;;6234046;28;20439;-73
2020/12/22 02:38:42;;;;;;;19.35;9.57;;;12.60;72.40;;;;;;6231600;28;20117;-73
2020/12/22 02:41:43;;;;;;;21.70;10.02;;;12.60;72.40;;;;;;6230346;28;20022;-73
2020/12/22 02:44:44;;;;;;;16.70;8.77;;;12.60;72.40;;;;;;6214562;28;20509;-73
2020/12/22 02:47:45;;;;;;;21.02;8.75;;;12.60;72.40;;;;;;6222048;28;20038;-74
2020/12/22 02:50:46;;;;;;;16.10;8.23;;;12.60;72.40;;;;;;6233451;28;20104;-72
2020/12/22 02:53:47;;;;;;;19.30;9.05;;;12.60;72.40;;;;;;6229677;28;20060;-73
2020/12/22 02:56:48;;;;;;;23.27;9.85;;;12.60;72.50;;;;;;6230409;28;20053;-74
2020/12/22 02:59:48;;;;;;;24.60;10.60;;;12.70;72.50;;;;;;6235242;28;20037;-75
2020/12/22 03:02:50;;;;;;;22.67;9.23;;;12.70;72.50;;;;;;6235631;28;20049;-74
2020/12/22 03:05:51;;;;;;;18.48;9.20;;;12.70;72.50;;;;;;6253232;28;20072;-73
2020/12/22 03:08:52;;;;;;;18.77;9.05;;;12.70;72.50;;;;;;6257372;28;20715;-74
2020/12/22 03:11:53;;;;;;;21.13;10.00;;;12.70;72.50;;;;;;6254357;28;20044;-73
2020/12/22 03:14:54;;;;;;;24.40;9.68;;;12.70;72.30;;;;;;6252867;28;20482;-73
2020/12/22 03:17:55;;;;;;;25.55;10.48;;;12.70;72.10;;;;;;6256786;28;20029;-73
2020/12/22 03:20:56;;;;;;;25.17;10.77;;;12.70;72.10;;;;;;6243319;28;20033;-72
2020/12/22 03:23:56;;;;;;;27.05;10.70;;;12.60;72.20;;;;;;6259597;28;20115;-73
2020/12/22 03:26:57;;;;;;;24.17;10.40;;;12.60;72.20;;;;;;6257842;28;20037;-73
2020/12/22 03:29:59;;;;;;;25.83;10.50;;;12.60;72.30;;;;;;6232276;28;20099;-73
2020/12/22 03:33:15;;;;;;;20.15;9.73;;;12.60;72.40;;;;;;6254177;28;20402;-74
2020/12/22 03:36:16;;;;;;;17.27;8.88;;;12.60;72.40;;;;;;6252667;28;20045;-73
2020/12/22 03:39:18;;;;;;;18.45;8.25;;;12.60;72.30;;;;;;6235557;28;20048;-73
2020/12/22 03:42:20;;;;;;;16.70;7.53;;;12.60;72.20;;;;;;6243693;28;20033;-73
2020/12/22 03:45:21;;;;;;;16.10;7.60;;;12.60;72.10;;;;;;6255942;28;20029;-73
2020/12/22 03:48:23;;;;;;;17.35;8.25;;;12.60;72.10;;;;;;6245426;28;20057;-73
2020/12/22 03:51:23;;;;;;;15.77;7.50;;;12.60;72.90;;;;;;6227703;28;20065;-73
2020/12/22 03:54:24;;;;;;;21.67;9.00;;;12.60;72.10;;;;;;6232835;28;20163;-73
2020/12/22 03:57:25;;;;;;;21.13;9.20;;;12.60;72.10;;;;;;6218252;28;20360;-74
2020/12/22 04:00:26;;;;;;;18.48;8.15;;;12.60;72.10;;;;;;6230879;28;20041;-74
2020/12/22 04:03:27;;;;;;;19.08;8.38;;;12.60;72.10;;;;;;6219750;28;20054;-74
2020/12/22 04:06:28;;;;;;;17.40;8.57;;;12.60;72.00;;;;;;6231154;28;20064;-74
2020/12/22 04:09:29;;;;;;;14.65;7.22;;;12.60;71.90;;;;;;6229271;28;20038;-73
2020/12/22 04:12:30;;;;;;;14.30;6.60;;;12.50;71.80;;;;;;6229444;28;20496;-73
2020/12/22 04:15:31;;;;;;;15.07;6.03;;;12.50;71.60;;;;;;6210468;28;20030;-74
2020/12/22 04:18:32;;;;;;;18.02;7.10;;;12.50;71.60;;;;;;6231758;28;20026;-74
2020/12/22 04:21:35;;;;;;;15.32;6.47;;;12.50;71.60;;;;;;6224045;28;20033;-73
2020/12/22 04:24:36;;;;;;;11.32;6.07;;;12.40;72.20;;;;;;6229982;28;20341;-73
2020/12/22 04:27:37;;;;;;;14.65;5.70;;;12.40;71.20;;;;;;6225635;28;20061;-73
2020/12/22 04:30:38;;;;;;;9.70;5.70;;;12.30;71.20;;;;;;6247850;28;20033;-73
2020/12/22 04:33:40;;;;;;;11.13;5.95;;;12.30;71.20;;;;;;6249368;28;20026;-73
2020/12/22 04:36:40;;;;;;;11.35;6.00;;;12.20;71.20;;;;;;6242099;28;20037;-74
2020/12/22 04:39:41;;;;;;;11.55;6.22;;;12.20;71.20;;;;;;6228514;28;20045;-72
2020/12/22 04:42:43;;;;;;;10.48;5.20;;;12.20;71.40;;;;;;6227499;28;20532;-73
2020/12/22 04:45:49;;;;;;;21.48;6.38;;;12.20;71.40;;;;;;6228467;28;20034;-74
2020/12/22 04:48:55;;;;;;;12.45;6.10;;;12.10;71.40;;;;;;6226341;28;20095;-73
2020/12/22 04:51:56;;;;;;;9.90;5.53;;;12.20;71.60;;;;;;6230087;28;20108;-73
2020/12/22 04:54:57;;;;;;;8.40;4.63;;;12.20;71.40;;;;;;6219928;28;21991;-73
2020/12/22 04:58:26;;;;;;;8.98;5.53;;;12.20;71.40;;;;;;6251882;28;20029;-73
2020/12/22 05:01:27;;;;;;;7.47;4.65;;;12.10;71.30;;;;;;6230688;28;20788;-74
2020/12/22 05:04:37;;;;;;;10.38;5.07;;;12.10;71.40;;;;;;6228913;28;20128;-73
2020/12/22 05:07:40;;;;;;;13.45;5.60;;;12.10;71.40;;;;;;6231528;28;20045;-73
2020/12/22 05:10:46;;;;;;;10.40;6.07;;;12.10;71.40;;;;;;6211796;28;20107;-72
2020/12/22 05:13:47;;;;;;;12.40;6.07;;;12.10;71.40;;;;;;6236093;28;20059;-73
2020/12/22 05:16:48;;;;;;;12.57;5.80;;;12.20;71.50;;;;;;6250342;28;20524;-73
2020/12/22 05:19:51;;;;;;;11.88;6.50;;;12.20;71.40;;;;;;6252937;28;20041;-72
2020/12/22 05:22:53;;;;;;;16.40;6.18;;;12.20;71.40;;;;;;6250728;28;20041;-72
2020/12/22 05:25:54;;;;;;;20.70;7.78;;;12.20;71.40;;;;;;6219998;28;20116;-72
2020/12/22 05:28:56;;;;;;;17.88;8.35;;;12.20;71.40;;;;;;6216562;28;20061;-74
2020/12/22 05:31:58;;;;;;;16.50;6.38;;;12.20;71.50;;;;;;6219448;28;20037;-73
2020/12/22 05:34:59;;;;;;;19.35;8.20;;;12.30;71.50;;;;;;6225331;28;20038;-73
2020/12/22 05:38:02;;;;;;;20.75;7.60;;;12.20;71.50;;;;;;6231346;28;20038;-72
2020/12/22 05:41:07;;;;;;;22.95;8.52;;;12.30;71.60;;;;;;6221474;28;20025;-74
2020/12/22 05:44:08;;;;;;;20.73;8.48;;;12.30;71.60;;;;;;6233855;28;20112;-74
2020/12/22 05:47:09;;;;;;;30.92;10.40;;;12.30;71.60;;;;;;6230862;28;20048;-74
2020/12/22 05:50:10;;;;;;;28.23;9.55;;;12.30;71.60;;;;;;6230554;28;20034;-74
2020/12/22 05:53:12;;;;;;;34.22;10.65;;;12.30;71.70;;;;;;6235559;28;20124;-74
2020/12/22 05:56:23;;;;;;;32.72;10.55;;;12.20;71.70;;;;;;6228519;28;20124;-73
2020/12/22 05:59:25;;;;;;;28.40;8.77;;;12.20;71.90;;;;;;6232606;28;20545;-73
2020/12/22 06:02:28;;;;;;;28.00;10.52;;;12.10;72.00;;;;;;6233315;28;20057;-73
2020/12/22 06:05:34;;;;;;;34.53;9.95;;;12.10;72.30;;;;;;6234007;28;20049;-73
2020/12/22 06:08:34;;;;;;;35.28;10.25;;;12.20;72.40;;;;;;6229501;28;20068;-72
2020/12/22 06:15:52;;;;;;;42.63;11.50;;;12.20;72.20;;;;;;6228684;28;20125;-73
2020/12/22 06:18:54;;;;;;;34.83;9.88;;;12.10;72.40;;;;;;6256397;28;20107;-74
2020/12/22 06:21:58;;;;;;;30.63;9.05;;;12.10;72.50;;;;;;6254829;28;20536;-73
2020/12/22 06:25:00;;;;;;;25.73;8.20;;;12.10;72.40;;;;;;6258029;28;20401;-73
2020/12/22 06:28:02;;;;;;;30.95;9.25;;;12.10;72.30;;;;;;6231850;28;20057;-74
2020/12/22 06:31:31;;;;;;;37.58;9.45;;;12.10;72.50;;;;;;6237214;28;20029;-74
2020/12/22 06:34:32;;;;;;;41.90;11.18;;;12.10;72.60;;;;;;6253309;28;20026;-75
2020/12/22 06:37:41;;;;;;;46.65;11.32;;;12.10;72.60;;;;;;6234893;28;20033;-73
2020/12/22 06:40:53;;;;;;;47.85;11.48;;;12.10;72.80;;;;;;6231984;28;20052;-74
2020/12/22 06:43:55;;;;;;;43.63;10.80;;;12.10;72.90;;;;;;6229713;28;20087;-74
2020/12/22 06:47:00;;;;;;;51.33;11.68;;;12.10;72.80;;;;;;6216095;28;20068;-72
2020/12/22 06:50:02;;;;;;;38.15;9.80;;;12.10;72.80;;;;;;6209186;28;20121;-73
2020/12/22 06:53:04;;;;;;;42.20;10.35;;;12.10;72.70;;;;;;6228338;28;20366;-73
2020/12/22 06:56:05;;;;;;;47.13;10.90;;;12.10;72.80;;;;;;6227313;28;20466;-73
2020/12/22 06:59:10;;;;;;;44.75;11.15;;;12.10;72.90;;;;;;6211267;28;20033;-73
2020/12/22 07:02:36;;;;;;;35.65;10.65;;;12.00;73.10;;;;;;6229639;28;20169;-74
2020/12/22 07:05:42;;;;;;;31.88;9.50;;;12.10;73.20;;;;;;6246407;28;20055;-73
2020/12/22 07:08:44;;;;;;;39.13;9.88;;;12.00;73.10;;;;;;6254312;28;20505;-74
2020/12/22 07:11:46;;;;;;;35.88;9.40;;;12.00;73.00;;;;;;6258270;28;20038;-74
2020/12/22 07:14:49;;;;;;;31.33;8.88;;;12.00;72.90;;;;;;6259775;28;20037;-73
2020/12/22 07:18:02;;;;;;;28.65;8.38;;;12.00;73.00;;;;;;6262899;28;20494;-77
2020/12/22 07:21:03;;;;;;;29.98;8.52;;;12.00;72.90;;;;;;6262145;28;20083;-76
2020/12/22 07:24:04;;;;;;;24.42;8.15;;;12.00;73.00;;;;;;6278825;28;20017;-76
2020/12/22 07:27:07;;;;;;;29.55;8.77;;;12.00;73.10;;;;;;6253191;28;20061;-77
2020/12/22 07:30:08;;;;;;;36.55;10.38;;;11.90;72.80;;;;;;6253704;28;20438;-74
2020/12/22 07:33:08;;;;;;;30.02;7.65;;;11.90;72.90;;;;;;6240136;28;20041;-77
2020/12/22 07:36:09;;;;;;;29.63;8.60;;;11.90;72.90;;;;;;6251596;28;20487;-77
2020/12/22 07:39:23;;;;;;;23.92;7.45;;;11.90;72.90;;;;;;6236237;28;20478;-77
2020/12/22 07:42:24;;;;;;;23.73;7.93;;;11.80;72.80;;;;;;6227307;28;20440;-78
2020/12/22 07:45:26;;;;;;;32.92;8.73;;;11.90;72.80;;;;;;6228445;28;20133;-84
2020/12/22 07:48:32;;;;;;;19.67;6.43;;;11.80;72.60;;;;;;6226013;28;20443;-75
2020/12/22 07:51:33;;;;;;;26.17;6.63;;;11.80;72.60;;;;;;6229997;28;20041;-75
2020/12/22 07:54:34;;;;;;;19.80;6.15;;;11.80;72.40;;;;;;6240347;28;20033;-76
2020/12/22 07:57:39;;;;;;;24.95;6.80;;;11.70;72.40;;;;;;6234889;28;20030;-76
2020/12/22 08:00:40;;;;;;;25.55;7.68;;;11.70;72.20;;;;;;6232320;28;20554;-75
2020/12/22 08:03:41;;;;;;;22.88;7.22;;;11.70;72.20;;;;;;6253535;28;20033;-76
2020/12/22 08:07:08;;;;;;;21.58;6.50;;;11.60;72.20;;;;;;6235545;28;20068;-75
2020/12/22 08:10:13;;;;;;;21.20;6.57;;;11.60;72.60;;;;;;6253221;28;20029;-75
2020/12/22 08:13:15;;;;;;;26.20;7.20;;;11.60;72.60;;;;;;6235334;28;20802;-76
2020/12/22 08:16:19;;;;;;;28.10;7.70;;;11.60;72.60;;;;;;6254853;28;20038;-76
2020/12/22 08:19:21;;;;;;;23.45;6.95;;;11.60;72.50;;;;;;6250829;28;20135;-76
2020/12/22 08:22:23;;;;;;;26.55;7.78;;;11.60;72.70;;;;;;6248343;28;20034;-76
2020/12/22 08:25:24;;;;;;;25.77;6.97;;;11.70;72.80;;;;;;6253884;28;20448;-76
2020/12/22 08:28:26;;;;;;;24.58;7.72;;;11.70;72.70;;;;;;6249510;28;20447;-76
2020/12/22 08:31:27;;;;;;;27.88;7.50;;;11.80;72.40;;;;;;6246719;28;20033;-78
2020/12/22 08:34:31;;;;;;;25.70;7.38;;;11.80;72.40;;;;;;6248951;28;20029;-75
2020/12/22 08:37:32;;;;;;;33.08;6.95;;;11.90;72.20;;;;;;6245977;28;20060;-75
2020/12/22 08:40:33;;;;;;;20.15;6.47;;;11.80;72.00;;;;;;6250483;28;20482;-75
2020/12/22 08:43:34;;;;;;;25.13;7.05;;;11.80;72.00;;;;;;6250954;28;20425;-75
2020/12/22 08:46:36;;;;;;;25.98;7.03;;;11.80;72.10;;;;;;6252185;28;20033;-74
2020/12/22 08:49:37;;;;;;;21.90;6.90;;;11.80;72.30;;;;;;6249556;28;20037;-74
2020/12/22 08:52:39;;;;;;;22.67;7.53;;;11.80;72.30;;;;;;6248769;28;20110;-76
2020/12/22 08:55:40;;;;;;;25.23;7.43;;;11.80;72.40;;;;;;6226984;28;20124;-76
2020/12/22 08:58:55;;;;;;;24.27;7.45;;;11.80;72.70;;;;;;6215051;28;20034;-74
2020/12/22 09:01:55;;;;;;;20.52;7.38;;;11.90;72.80;;;;;;6219888;28;20037;-76
2020/12/22 09:04:58;;;;;;;35.55;9.38;;;11.90;72.70;;;;;;6231075;28;20404;-75
2020/12/22 09:08:00;;;;;;;27.33;8.32;;;11.90;72.70;;;;;;6225470;28;20046;-75
2020/12/22 09:11:01;;;;;;;29.48;7.63;;;12.00;72.80;;;;;;6225830;28;20071;-75
2020/12/22 09:14:08;;;;;;;21.35;7.40;;;12.00;72.80;;;;;;6227916;28;20057;-74
2020/12/22 09:17:10;;;;;;;19.98;6.70;;;12.10;72.50;;;;;;6233929;28;20375;-75
2020/12/22 09:20:18;;;;;;;21.60;7.95;;;12.10;72.30;;;;;;6257711;28;20037;-74
2020/12/22 09:23:19;;;;;;;28.13;8.40;;;12.10;72.40;;;;;;6237672;28;20056;-76
2020/12/22 09:26:20;;;;;;;25.50;7.95;;;12.20;72.50;;;;;;6263705;28;20131;-74
2020/12/22 09:29:21;;;;;;;29.73;8.15;;;12.20;72.40;;;;;;6276344;28;20052;-76
2020/12/22 09:32:22;;;;;;;24.33;7.53;;;12.30;72.40;;;;;;6273709;28;20116;-74
2020/12/22 09:35:23;;;;;;;20.80;8.30;;;12.30;72.40;;;;;;6277905;28;20048;-72
2020/12/22 09:38:24;;;;;;;24.08;7.82;;;12.30;72.40;;;;;;6267874;28;20505;-75
2020/12/22 09:41:25;;;;;;;25.05;8.20;;;12.30;72.30;;;;;;6270565;28;20081;-72
2020/12/22 09:44:26;;;;;;;25.98;8.65;;;12.30;72.20;;;;;;6255090;28;20097;-77
2020/12/22 09:47:27;;;;;;;29.15;8.13;;;12.40;72.20;;;;;;6230206;28;20029;-79
2020/12/22 09:50:28;;;;;;;32.83;12.80;;;12.40;72.10;;;;;;6253241;28;20545;-76
2020/12/22 09:53:29;;;;;;;45.78;17.15;;;12.40;72.00;;;;;;6249654;28;20117;-73
2020/12/22 09:56:31;;;;;;;37.00;13.52;;;12.40;72.10;;;;;;6230306;28;20049;-76
2020/12/22 09:59:33;;;;;;;24.60;8.30;;;12.50;72.40;;;;;;6244615;28;20036;-78
2020/12/22 10:02:34;;;;;;;25.70;8.73;;;12.70;72.10;;;;;;6245958;28;20492;-76
2020/12/22 10:05:35;;;;;;;21.02;8.05;;;12.70;71.60;;;;;;6245079;28;20045;-77
2020/12/22 10:08:37;;;;;;;22.05;7.85;;;12.80;70.90;;;;;;6242893;28;20139;-77
2020/12/22 10:11:38;;;;;;;20.05;7.22;;;12.80;70.30;;;;;;6242806;28;20030;-76
2020/12/22 10:14:39;;;;;;;23.63;10.23;;;12.80;70.20;;;;;;6226290;28;20037;-76
2020/12/22 10:17:40;;;;;;;19.67;8.63;;;12.80;70.30;;;;;;6243414;28;20052;-77
2020/12/22 10:20:41;;;;;;;22.50;7.72;;;12.80;70.30;;;;;;6243620;28;20528;-77
2020/12/22 10:23:43;;;;;;;26.77;9.85;;;12.90;70.30;;;;;;6242240;28;20029;-76
2020/12/22 10:26:44;;;;;;;23.40;8.32;;;12.90;70.00;;;;;;6242743;28;20498;-77
2020/12/22 10:29:45;;;;;;;40.35;15.48;;;13.00;70.00;;;;;;6226420;28;20087;-77
2020/12/22 10:32:46;;;;;;;49.70;19.88;;;13.00;70.00;;;;;;6226054;28;20033;-77
2020/12/22 10:35:47;;;;;;;48.60;19.92;;;13.00;69.70;;;;;;6242473;28;20034;-76
2020/12/22 10:38:53;;;;;;;32.45;14.93;;;13.00;69.60;;;;;;6242150;28;20032;-77
2020/12/22 10:41:54;;;;;;;42.88;17.90;;;13.10;69.90;;;;;;6241520;28;20060;-77
2020/12/22 10:44:54;;;;;;;51.13;20.50;;;13.10;69.70;;;;;;6241984;28;20391;-76
2020/12/22 10:47:56;;;;;;;30.25;11.90;;;13.20;69.50;;;;;;6242520;28;20537;-76
2020/12/22 10:50:57;;;;;;;51.10;20.73;;;13.20;69.40;;;;;;6224892;28;20040;-76
2020/12/22 10:53:58;;;;;;;30.48;13.98;;;13.20;69.30;;;;;;6242579;28;20037;-78
2020/12/22 10:56:59;;;;;;;38.60;13.15;;;13.20;69.20;;;;;;6243527;28;20475;-76
2020/12/22 11:00:00;;;;;;;35.25;13.80;;;13.10;69.30;;;;;;6242513;28;20034;-76
2020/12/22 11:03:05;;;;;;;35.10;14.70;;;13.10;69.40;;;;;;6243097;28;20626;-75
2020/12/22 11:09:13;;;;;;;33.80;15.13;;;13.20;70.30;;;;;;6244608;28;20435;-76
2020/12/22 11:12:13;;;;;;;52.67;19.77;;;13.40;70.20;;;;;;6243118;28;20071;-76
2020/12/22 11:15:14;;;;;;;45.00;18.88;;;13.80;69.50;;;;;;6225906;28;20025;-77
2020/12/22 11:18:16;;;;;;;31.20;12.40;;;14.10;68.00;;;;;;6242102;28;20411;-76
2020/12/22 11:21:17;;;;;;;40.88;18.75;;;14.40;66.80;;;;;;6242621;28;20532;-78
2020/12/22 11:24:18;;;;;;;29.58;11.20;;;14.70;65.90;;;;;;6241850;28;20037;-76
2020/12/22 11:27:19;;;;;;;26.65;11.60;;;15.00;65.20;;;;;;6241071;28;20049;-76
2020/12/22 11:30:20;;;;;;;37.83;16.80;;;15.30;64.30;;;;;;6240704;28;20033;-76
2020/12/22 11:33:21;;;;;;;22.20;10.35;;;15.60;63.10;;;;;;6241082;28;20037;-76
2020/12/22 11:36:22;;;;;;;23.38;11.73;;;15.90;62.20;;;;;;6240682;28;20321;-76
2020/12/22 11:39:23;;;;;;;21.80;9.88;;;16.00;61.20;;;;;;6224826;28;20029;-77
2020/12/22 11:42:24;;;;;;;24.98;10.40;;;15.80;61.10;;;;;;6242010;28;20121;-77
2020/12/22 11:45:25;;;;;;;28.55;12.18;;;15.60;61.50;;;;;;6240343;28;20048;-76
2020/12/22 11:48:26;;;;;;;23.23;11.18;;;15.40;62.00;;;;;;6239922;28;20053;-75
2020/12/22 11:51:27;;;;;;;16.00;8.88;;;15.30;62.60;;;;;;6240168;28;20103;-77
2020/12/22 11:54:28;;;;;;;18.42;9.32;;;15.20;63.00;;;;;;6240311;28;20029;-76
2020/12/22 11:57:29;;;;;;;26.80;11.85;;;15.10;63.30;;;;;;6240390;28;20029;-76
2020/12/22 12:00:30;;;;;;;19.20;9.13;;;15.00;63.60;;;;;;6241509;28;20033;-77
2020/12/22 12:03:31;;;;;;;26.60;11.88;;;15.00;64.00;;;;;;6240461;28;20418;-77
2020/12/22 12:06:32;;;;;;;67.90;27.13;;;14.90;64.10;;;;;;6240393;28;20033;-77
2020/12/22 12:09:33;;;;;;;36.00;15.73;;;14.90;64.20;;;;;;6242575;28;20034;-76
2020/12/22 12:12:34;;;;;;;24.63;10.55;;;14.80;64.10;;;;;;6224009;28;20094;-77
2020/12/22 12:15:37;;;;;;;22.90;9.95;;;14.80;64.30;;;;;;6223408;28;20308;-75
2020/12/22 12:18:39;;;;;;;17.67;7.85;;;14.70;64.50;;;;;;6240103;28;20049;-76
2020/12/22 12:21:41;;;;;;;21.85;8.82;;;14.70;65.00;;;;;;6241005;28;20080;-76
2020/12/22 12:24:42;;;;;;;29.13;12.40;;;14.70;65.10;;;;;;6240874;28;20026;-76
2020/12/22 12:27:43;;;;;;;17.48;9.02;;;14.80;65.40;;;;;;6240057;28;20032;-76
2020/12/22 12:30:44;;;;;;;16.42;7.75;;;14.90;65.40;;;;;;6239641;28;20083;-76
2020/12/22 12:33:45;;;;;;;20.90;9.82;;;14.90;65.30;;;;;;6223381;28;20124;-77
2020/12/22 12:36:46;;;;;;;14.00;6.15;;;15.00;65.30;;;;;;6239868;28;20392;-76
2020/12/22 12:39:47;;;;;;;27.30;13.57;;;15.00;65.20;;;;;;6239764;28;20064;-78
2020/12/22 12:42:49;;;;;;;16.48;7.97;;;15.00;65.10;;;;;;6239912;28;20167;-76
2020/12/22 12:45:50;;;;;;;17.73;8.82;;;15.00;65.20;;;;;;6242820;28;20025;-77
2020/12/22 12:48:52;;;;;;;11.77;6.30;;;15.00;66.00;;;;;;6244367;28;20030;-76
2020/12/22 12:51:53;;;;;;;18.85;10.43;;;15.00;65.20;;;;;;6244450;28;20055;-75
2020/12/22 12:54:53;;;;;;;12.48;6.35;;;15.00;65.10;;;;;;6244548;28;20021;-77
2020/12/22 12:57:56;;;;;;;13.65;7.13;;;15.10;65.30;;;;;;6244588;28;20036;-76
2020/12/22 13:00:57;;;;;;;15.73;6.32;;;15.10;65.60;;;;;;6244421;28;20041;-76
2020/12/22 13:03:58;;;;;;;16.08;6.88;;;15.20;65.20;;;;;;6244086;28;20045;-76
2020/12/22 13:07:00;;;;;;;10.77;4.85;;;15.20;64.90;;;;;;6245321;28;20495;-75
2020/12/22 13:10:01;;;;;;;12.02;6.00;;;15.30;64.90;;;;;;6245126;28;20036;-76
2020/12/22 13:13:02;;;;;;;11.02;5.63;;;15.30;64.70;;;;;;6243720;28;20535;-76
2020/12/22 13:16:08;;;;;;;10.73;5.40;;;15.30;64.60;;;;;;6227495;28;20033;-76
2020/12/22 13:19:09;;;;;;;10.48;5.18;;;15.30;64.50;;;;;;6243117;28;20030;-76
2020/12/22 13:22:10;;;;;;;9.85;5.38;;;15.30;64.30;;;;;;6244275;28;20033;-76
2020/12/22 13:25:11;;;;;;;13.57;5.90;;;15.30;64.20;;;;;;6243532;28;20571;-77
2020/12/22 13:28:12;;;;;;;12.90;5.55;;;15.30;64.20;;;;;;6244741;28;20168;-76
2020/12/22 13:31:13;;;;;;;10.23;5.55;;;15.30;64.20;;;;;;6243278;28;20045;-76
2020/12/22 13:34:14;;;;;;;12.57;5.72;;;15.40;64.30;;;;;;6226632;28;20041;-77
2020/12/22 13:37:15;;;;;;;7.55;4.00;;;15.40;64.10;;;;;;6244965;28;20029;-77
2020/12/22 13:40:16;;;;;;;17.38;8.18;;;15.50;63.90;;;;;;6244897;28;20559;-76
2020/12/22 13:43:18;;;;;;;18.83;9.00;;;15.50;63.80;;;;;;6227345;28;20044;-76
2020/12/22 13:46:27;;;;;;;44.65;18.25;;;15.50;63.80;;;;;;6243388;28;20074;-76
2020/12/22 13:49:28;;;;;;;30.55;13.25;;;15.60;63.80;;;;;;6243560;28;20033;-76
2020/12/22 13:52:29;;;;;;;29.90;13.73;;;15.70;63.70;;;;;;6243665;28;20088;-75
2020/12/22 13:55:30;;;;;;;18.23;7.82;;;15.70;63.70;;;;;;6243614;28;20076;-76
2020/12/22 13:58:31;;;;;;;26.52;10.63;;;15.80;63.60;;;;;;6243658;28;20026;-77
2020/12/22 14:01:32;;;;;;;21.08;11.43;;;15.90;63.50;;;;;;6244527;28;20052;-78
2020/12/22 14:04:33;;;;;;;30.70;12.63;;;16.00;63.40;;;;;;6243703;28;20068;-77
2020/12/22 14:07:34;;;;;;;21.75;9.80;;;16.10;63.40;;;;;;6243759;28;20035;-76
2020/12/22 14:10:35;;;;;;;11.05;6.22;;;16.00;63.10;;;;;;6245692;28;20029;-76
2020/12/22 14:13:36;;;;;;;14.02;6.53;;;16.10;63.00;;;;;;6247755;28;20036;-76
2020/12/22 14:16:37;;;;;;;9.57;5.15;;;16.10;62.90;;;;;;6247238;28;20362;-76
2020/12/22 14:19:39;;;;;;;6.70;3.83;;;16.20;62.90;;;;;;6251428;28;20143;-79
2020/12/22 14:22:40;;;;;;;9.18;4.50;;;16.20;62.70;;;;;;6250241;28;20603;-76
2020/12/22 14:25:41;;;;;;;9.13;4.93;;;16.10;62.50;;;;;;6243588;28;20037;-77
2020/12/22 14:28:43;;;;;;;12.50;5.53;;;16.20;62.30;;;;;;6244019;28;20123;-76
2020/12/22 14:31:45;;;;;;;10.48;5.35;;;16.20;62.40;;;;;;6242771;28;20047;-77
2020/12/22 14:34:46;;;;;;;14.00;7.07;;;16.20;62.30;;;;;;6242710;28;20466;-76
2020/12/22 14:37:47;;;;;;;12.82;6.45;;;16.20;62.30;;;;;;6242553;28;20097;-78
2020/12/22 14:40:53;;;;;;;12.18;5.80;;;16.20;62.20;;;;;;6242698;28;20033;-77
2020/12/22 14:43:54;;;;;;;13.48;6.72;;;16.20;62.20;;;;;;6242936;28;20033;-77
2020/12/22 14:46:55;;;;;;;11.35;5.70;;;16.20;62.10;;;;;;6242730;28;20037;-76
2020/12/22 14:49:57;;;;;;;9.07;5.20;;;16.20;62.20;;;;;;6226288;28;20256;-76
2020/12/22 14:52:58;;;;;;;18.15;7.43;;;16.20;62.30;;;;;;6225811;28;20175;-77
2020/12/22 14:56:04;;;;;;;13.85;6.95;;;16.20;62.40;;;;;;6244299;28;20021;-77
2020/12/22 14:59:06;;;;;;;16.42;6.43;;;16.20;62.60;;;;;;6248494;28;20029;-76
2020/12/22 15:02:07;;;;;;;22.80;10.73;;;16.20;62.60;;;;;;6256869;28;20020;-77
2020/12/22 15:05:09;;;;;;;22.02;11.25;;;16.20;62.60;;;;;;6261538;28;20026;-77
2020/12/22 15:08:09;;;;;;;15.40;8.32;;;16.10;62.70;;;;;;6251621;28;20025;-76
2020/12/22 15:11:17;;;;;;;22.60;8.48;;;16.10;62.90;;;;;;6242849;28;20025;-76
2020/12/22 15:14:19;;;;;;;19.20;7.63;;;16.10;63.10;;;;;;6226530;28;20029;-75
2020/12/22 15:17:20;;;;;;;26.65;7.72;;;16.10;63.00;;;;;;6241370;28;20036;-76
2020/12/22 15:20:21;;;;;;;16.58;7.90;;;16.00;63.10;;;;;;6242743;28;20038;-76
2020/12/22 15:23:23;;;;;;;28.60;10.63;;;16.00;63.20;;;;;;6224708;28;20080;-76
2020/12/22 15:26:24;;;;;;;36.33;16.08;;;16.00;63.20;;;;;;6240615;28;20076;-77
2020/12/22 15:29:26;;;;;;;16.85;8.05;;;16.00;63.40;;;;;;6241950;28;20025;-76
2020/12/22 15:32:29;;;;;;;14.82;7.05;;;15.90;63.40;;;;;;6240802;28;20033;-76
2020/12/22 15:35:32;;;;;;;25.00;11.13;;;15.90;63.50;;;;;;6224260;28;20072;-77
2020/12/22 15:38:33;;;;;;;16.73;7.97;;;15.90;63.50;;;;;;6242141;28;20058;-76
2020/12/22 15:41:34;;;;;;;24.85;12.07;;;15.80;63.50;;;;;;6240613;28;20060;-77